sensor_id;sensor_type;location;lat;lon;timestamp;P1;durP1;ratioP1;P2;durP2;ratioP2
27495;SDS011;14929;51.336;9.416;2023-06-14T00:02:10;3.03;;;1.85;;
27495;SDS011;14929;51.336;9.416;2023-06-14T00:04:37;1.73;;;1.63;;
27495;SDS011;14929;51.336;9.416;2023-06-14T00:07:08;2.05;;;1.90;;
27495;SDS011;14929;51.336;9.416;2023-06-14T00:09:35;1.70;;;1.60;;
27495;SDS011;14929;51.336;9.416;2023-06-14T00:12:03;1.48;;;1.30;;
27495;SDS011;14929;51.336;9.416;2023-06-14T00:14:31;1.40;;;1.30;;
27495;SDS011;14929;51.336;9.416;2023-06-14T00:16:59;1.88;;;1.30;;
27495;SDS011;14929;51.336;9.416;2023-06-14T00:19:26;1.25;;;1.15;;
27495;SDS011;14929;51.336;9.416;2023-06-14T00:21:55;1.45;;;1.35;;
27495;SDS011;14929;51.336;9.416;2023-06-14T00:24:24;1.63;;;1.52;;
27495;SDS011;14929;51.336;9.416;2023-06-14T00:26:52;1.30;;;1.20;;
27495;SDS011;14929;51.336;9.416;2023-06-14T00:29:20;1.52;;;1.42;;
27495;SDS011;14929;51.336;9.416;2023-06-14T00:31:47;1.70;;;1.60;;
27495;SDS011;14929;51.336;9.416;2023-06-14T00:34:15;1.52;;;1.42;;
27495;SDS011;14929;51.336;9.416;2023-06-14T00:36:42;1.63;;;1.52;;
27495;SDS011;14929;51.336;9.416;2023-06-14T00:39:10;1.17;;;1.02;;
27495;SDS011;14929;51.336;9.416;2023-06-14T00:41:39;3.08;;;1.60;;
27495;SDS011;14929;51.336;9.416;2023-06-14T00:44:06;1.33;;;1.23;;
27495;SDS011;14929;51.336;9.416;2023-06-14T00:46:34;1.42;;;1.33;;
27495;SDS011;14929;51.336;9.416;2023-06-14T00:49:01;1.65;;;1.30;;
27495;SDS011;14929;51.336;9.416;2023-06-14T00:51:29;1.50;;;1.40;;
27495;SDS011;14929;51.336;9.416;2023-06-14T00:53:57;2.08;;;1.50;;
27495;SDS011;14929;51.336;9.416;2023-06-14T00:56:25;1.85;;;1.75;;
27495;SDS011;14929;51.336;9.416;2023-06-14T00:58:55;1.70;;;1.60;;
27495;SDS011;14929;51.336;9.416;2023-06-14T01:01:23;1.70;;;1.60;;
27495;SDS011;14929;51.336;9.416;2023-06-14T01:03:51;1.65;;;1.40;;
27495;SDS011;14929;51.336;9.416;2023-06-14T01:06:20;2.15;;;2.05;;
27495;SDS011;14929;51.336;9.416;2023-06-14T01:08:57;1.88;;;1.60;;
27495;SDS011;14929;51.336;9.416;2023-06-14T01:11:36;1.50;;;1.40;;
27495;SDS011;14929;51.336;9.416;2023-06-14T01:14:08;1.58;;;1.38;;
27495;SDS011;14929;51.336;9.416;2023-06-14T01:16:37;1.05;;;1.05;;
27495;SDS011;14929;51.336;9.416;2023-06-14T01:19:06;1.45;;;1.35;;
27495;SDS011;14929;51.336;9.416;2023-06-14T01:21:38;1.77;;;1.67;;
27495;SDS011;14929;51.336;9.416;2023-06-14T01:24:09;2.42;;;1.33;;
27495;SDS011;14929;51.336;9.416;2023-06-14T01:26:37;1.58;;;1.48;;
27495;SDS011;14929;51.336;9.416;2023-06-14T01:29:12;2.08;;;1.77;;
27495;SDS011;14929;51.336;9.416;2023-06-14T01:31:41;1.55;;;1.45;;
27495;SDS011;14929;51.336;9.416;2023-06-14T01:34:10;1.50;;;1.40;;
27495;SDS011;14929;51.336;9.416;2023-06-14T01:36:38;1.73;;;1.50;;
27495;SDS011;14929;51.336;9.416;2023-06-14T01:39:10;1.67;;;1.55;;
27495;SDS011;14929;51.336;9.416;2023-06-14T01:41:40;1.55;;;1.40;;
27495;SDS011;14929;51.336;9.416;2023-06-14T01:44:08;1.52;;;1.40;;
27495;SDS011;14929;51.336;9.416;2023-06-14T01:46:36;1.30;;;1.20;;
27495;SDS011;14929;51.336;9.416;2023-06-14T01:49:04;1.45;;;1.35;;
27495;SDS011;14929;51.336;9.416;2023-06-14T01:51:31;1.10;;;1.10;;
27495;SDS011;14929;51.336;9.416;2023-06-14T01:53:59;1.92;;;1.83;;
27495;SDS011;14929;51.336;9.416;2023-06-14T01:56:27;1.75;;;1.52;;
27495;SDS011;14929;51.336;9.416;2023-06-14T01:58:55;1.60;;;1.45;;
27495;SDS011;14929;51.336;9.416;2023-06-14T02:01:23;1.35;;;1.25;;
27495;SDS011;14929;51.336;9.416;2023-06-14T02:03:51;1.45;;;1.35;;
27495;SDS011;14929;51.336;9.416;2023-06-14T02:06:19;1.98;;;1.35;;
27495;SDS011;14929;51.336;9.416;2023-06-14T02:08:46;1.42;;;1.33;;
27495;SDS011;14929;51.336;9.416;2023-06-14T02:11:15;1.42;;;1.33;;
27495;SDS011;14929;51.336;9.416;2023-06-14T02:13:44;1.60;;;1.50;;
27495;SDS011;14929;51.336;9.416;2023-06-14T02:16:11;1.48;;;1.35;;
27495;SDS011;14929;51.336;9.416;2023-06-14T02:18:39;1.60;;;1.50;;
27495;SDS011;14929;51.336;9.416;2023-06-14T02:21:07;1.27;;;1.20;;
27495;SDS011;14929;51.336;9.416;2023-06-14T02:23:34;1.45;;;1.35;;
27495;SDS011;14929;51.336;9.416;2023-06-14T02:26:02;2.10;;;1.90;;
27495;SDS011;14929;51.336;9.416;2023-06-14T02:28:29;1.13;;;1.13;;
27495;SDS011;14929;51.336;9.416;2023-06-14T02:30:58;1.10;;;1.10;;
27495;SDS011;14929;51.336;9.416;2023-06-14T02:33:26;1.52;;;1.08;;
27495;SDS011;14929;51.336;9.416;2023-06-14T02:35:53;1.25;;;1.15;;
27495;SDS011;14929;51.336;9.416;2023-06-14T02:38:21;3.03;;;1.30;;
27495;SDS011;14929;51.336;9.416;2023-06-14T02:40:49;1.42;;;1.33;;
27495;SDS011;14929;51.336;9.416;2023-06-14T02:43:16;2.13;;;1.80;;
27495;SDS011;14929;51.336;9.416;2023-06-14T02:45:43;1.50;;;1.40;;
27495;SDS011;14929;51.336;9.416;2023-06-14T02:48:12;1.77;;;1.40;;
27495;SDS011;14929;51.336;9.416;2023-06-14T02:50:40;1.60;;;1.50;;
27495;SDS011;14929;51.336;9.416;2023-06-14T02:53:07;1.48;;;1.38;;
27495;SDS011;14929;51.336;9.416;2023-06-14T02:55:35;1.52;;;1.30;;
27495;SDS011;14929;51.336;9.416;2023-06-14T02:58:04;1.30;;;1.20;;
27495;SDS011;14929;51.336;9.416;2023-06-14T03:00:32;1.35;;;1.25;;
27495;SDS011;14929;51.336;9.416;2023-06-14T03:03:00;1.40;;;1.30;;
27495;SDS011;14929;51.336;9.416;2023-06-14T03:05:29;1.75;;;1.63;;
27495;SDS011;14929;51.336;9.416;2023-06-14T03:07:58;1.38;;;1.30;;
27495;SDS011;14929;51.336;9.416;2023-06-14T03:10:25;1.48;;;1.38;;
27495;SDS011;14929;51.336;9.416;2023-06-14T03:12:54;2.33;;;1.70;;
27495;SDS011;14929;51.336;9.416;2023-06-14T03:15:21;1.35;;;1.27;;
27495;SDS011;14929;51.336;9.416;2023-06-14T03:17:49;1.40;;;1.30;;
27495;SDS011;14929;51.336;9.416;2023-06-14T03:20:18;1.13;;;1.13;;
27495;SDS011;14929;51.336;9.416;2023-06-14T03:22:47;1.13;;;1.13;;
27495;SDS011;14929;51.336;9.416;2023-06-14T03:25:15;1.77;;;1.50;;
27495;SDS011;14929;51.336;9.416;2023-06-14T03:27:43;1.33;;;1.23;;
27495;SDS011;14929;51.336;9.416;2023-06-14T03:30:11;2.05;;;1.13;;
27495;SDS011;14929;51.336;9.416;2023-06-14T03:32:39;1.40;;;1.30;;
27495;SDS011;14929;51.336;9.416;2023-06-14T03:35:07;1.40;;;1.30;;
27495;SDS011;14929;51.336;9.416;2023-06-14T03:37:41;1.40;;;1.30;;
27495;SDS011;14929;51.336;9.416;2023-06-14T03:40:12;1.20;;;1.15;;
27495;SDS011;14929;51.336;9.416;2023-06-14T03:42:41;1.30;;;1.20;;
27495;SDS011;14929;51.336;9.416;2023-06-14T03:45:08;1.17;;;1.13;;
27495;SDS011;14929;51.336;9.416;2023-06-14T03:47:36;1.33;;;1.30;;
27495;SDS011;14929;51.336;9.416;2023-06-14T03:50:04;1.52;;;1.30;;
27495;SDS011;14929;51.336;9.416;2023-06-14T03:52:33;1.60;;;1.50;;
27495;SDS011;14929;51.336;9.416;2023-06-14T03:55:00;2.95;;;1.40;;
27495;SDS011;14929;51.336;9.416;2023-06-14T03:57:29;1.58;;;1.48;;
27495;SDS011;14929;51.336;9.416;2023-06-14T03:59:57;1.60;;;1.50;;
27495;SDS011;14929;51.336;9.416;2023-06-14T04:02:24;1.75;;;1.65;;
27495;SDS011;14929;51.336;9.416;2023-06-14T04:04:53;1.55;;;1.42;;
27495;SDS011;14929;51.336;9.416;2023-06-14T04:07:21;1.63;;;1.52;;
27495;SDS011;14929;51.336;9.416;2023-06-14T04:09:50;2.95;;;1.65;;
27495;SDS011;14929;51.336;9.416;2023-06-14T04:12:17;2.25;;;1.23;;
27495;SDS011;14929;51.336;9.416;2023-06-14T04:14:46;1.83;;;1.33;;
27495;SDS011;14929;51.336;9.416;2023-06-14T04:17:14;1.30;;;1.20;;
27495;SDS011;14929;51.336;9.416;2023-06-14T04:19:42;1.30;;;1.17;;
27495;SDS011;14929;51.336;9.416;2023-06-14T04:22:09;1.83;;;1.52;;
27495;SDS011;14929;51.336;9.416;2023-06-14T04:24:37;1.35;;;1.25;;
27495;SDS011;14929;51.336;9.416;2023-06-14T04:27:04;1.50;;;1.40;;
27495;SDS011;14929;51.336;9.416;2023-06-14T04:29:32;1.90;;;1.75;;
27495;SDS011;14929;51.336;9.416;2023-06-14T04:32:01;1.88;;;1.65;;
27495;SDS011;14929;51.336;9.416;2023-06-14T04:34:29;1.17;;;1.05;;
27495;SDS011;14929;51.336;9.416;2023-06-14T04:36:59;2.20;;;1.42;;
27495;SDS011;14929;51.336;9.416;2023-06-14T04:39:26;1.40;;;1.30;;
27495;SDS011;14929;51.336;9.416;2023-06-14T04:41:54;1.77;;;1.67;;
27495;SDS011;14929;51.336;9.416;2023-06-14T04:44:25;1.58;;;1.48;;
27495;SDS011;14929;51.336;9.416;2023-06-14T04:46:56;1.48;;;1.38;;
27495;SDS011;14929;51.336;9.416;2023-06-14T04:49:26;1.00;;;1.00;;
27495;SDS011;14929;51.336;9.416;2023-06-14T04:51:57;1.55;;;1.17;;
27495;SDS011;14929;51.336;9.416;2023-06-14T04:54:26;1.80;;;1.60;;
27495;SDS011;14929;51.336;9.416;2023-06-14T04:56:56;2.55;;;1.67;;
27495;SDS011;14929;51.336;9.416;2023-06-14T04:59:23;1.50;;;1.40;;
27495;SDS011;14929;51.336;9.416;2023-06-14T05:01:51;1.10;;;1.10;;
27495;SDS011;14929;51.336;9.416;2023-06-14T05:04:22;1.20;;;1.20;;
27495;SDS011;14929;51.336;9.416;2023-06-14T05:06:52;2.55;;;1.50;;
27495;SDS011;14929;51.336;9.416;2023-06-14T05:09:20;1.63;;;1.52;;
27495;SDS011;14929;51.336;9.416;2023-06-14T05:11:47;2.95;;;1.65;;
27495;SDS011;14929;51.336;9.416;2023-06-14T05:14:15;1.92;;;1.60;;
27495;SDS011;14929;51.336;9.416;2023-06-14T05:16:43;3.45;;;3.15;;
27495;SDS011;14929;51.336;9.416;2023-06-14T05:19:11;1.52;;;1.42;;
27495;SDS011;14929;51.336;9.416;2023-06-14T05:21:39;1.48;;;1.38;;
27495;SDS011;14929;51.336;9.416;2023-06-14T05:24:08;1.60;;;1.50;;
27495;SDS011;14929;51.336;9.416;2023-06-14T05:26:36;1.25;;;1.20;;
27495;SDS011;14929;51.336;9.416;2023-06-14T05:29:04;1.70;;;1.60;;
27495;SDS011;14929;51.336;9.416;2023-06-14T05:31:31;1.77;;;1.63;;
27495;SDS011;14929;51.336;9.416;2023-06-14T05:33:59;1.95;;;1.50;;
27495;SDS011;14929;51.336;9.416;2023-06-14T05:36:26;1.83;;;1.67;;
27495;SDS011;14929;51.336;9.416;2023-06-14T05:38:54;1.90;;;1.80;;
27495;SDS011;14929;51.336;9.416;2023-06-14T05:41:24;2.08;;;1.90;;
27495;SDS011;14929;51.336;9.416;2023-06-14T05:43:52;1.98;;;1.70;;
27495;SDS011;14929;51.336;9.416;2023-06-14T05:46:21;1.42;;;1.33;;
27495;SDS011;14929;51.336;9.416;2023-06-14T05:48:50;1.45;;;1.35;;
27495;SDS011;14929;51.336;9.416;2023-06-14T05:51:18;1.40;;;1.30;;
27495;SDS011;14929;51.336;9.416;2023-06-14T05:53:45;1.60;;;1.50;;
27495;SDS011;14929;51.336;9.416;2023-06-14T05:56:13;1.77;;;1.65;;
27495;SDS011;14929;51.336;9.416;2023-06-14T05:58:44;2.63;;;1.42;;
27495;SDS011;14929;51.336;9.416;2023-06-14T06:01:11;1.50;;;1.40;;
27495;SDS011;14929;51.336;9.416;2023-06-14T06:03:39;1.02;;;1.02;;
27495;SDS011;14929;51.336;9.416;2023-06-14T06:06:10;2.10;;;1.40;;
27495;SDS011;14929;51.336;9.416;2023-06-14T06:08:38;1.70;;;1.60;;
27495;SDS011;14929;51.336;9.416;2023-06-14T06:11:06;1.90;;;1.70;;
27495;SDS011;14929;51.336;9.416;2023-06-14T06:13:33;4.00;;;1.60;;
27495;SDS011;14929;51.336;9.416;2023-06-14T06:16:08;2.33;;;1.70;;
27495;SDS011;14929;51.336;9.416;2023-06-14T06:18:36;2.30;;;2.10;;
27495;SDS011;14929;51.336;9.416;2023-06-14T06:21:03;1.55;;;1.45;;
27495;SDS011;14929;51.336;9.416;2023-06-14T06:23:31;2.08;;;1.88;;
27495;SDS011;14929;51.336;9.416;2023-06-14T06:26:00;1.92;;;1.83;;
27495;SDS011;14929;51.336;9.416;2023-06-14T06:28:28;2.35;;;2.20;;
27495;SDS011;14929;51.336;9.416;2023-06-14T06:30:55;1.70;;;1.60;;
27495;SDS011;14929;51.336;9.416;2023-06-14T06:33:24;1.80;;;1.70;;
27495;SDS011;14929;51.336;9.416;2023-06-14T06:35:51;2.40;;;1.85;;
27495;SDS011;14929;51.336;9.416;2023-06-14T06:38:19;2.78;;;1.80;;
27495;SDS011;14929;51.336;9.416;2023-06-14T06:40:46;2.08;;;1.88;;
27495;SDS011;14929;51.336;9.416;2023-06-14T06:43:14;1.95;;;1.85;;
27495;SDS011;14929;51.336;9.416;2023-06-14T06:45:42;3.97;;;2.13;;
27495;SDS011;14929;51.336;9.416;2023-06-14T06:48:10;2.08;;;1.92;;
27495;SDS011;14929;51.336;9.416;2023-06-14T06:50:39;4.50;;;2.22;;
27495;SDS011;14929;51.336;9.416;2023-06-14T06:53:06;2.33;;;2.13;;
27495;SDS011;14929;51.336;9.416;2023-06-14T06:55:34;2.15;;;1.95;;
27495;SDS011;14929;51.336;9.416;2023-06-14T06:58:01;2.92;;;2.60;;
27495;SDS011;14929;51.336;9.416;2023-06-14T07:00:30;3.00;;;2.28;;
27495;SDS011;14929;51.336;9.416;2023-06-14T07:02:57;2.50;;;2.30;;
27495;SDS011;14929;51.336;9.416;2023-06-14T07:05:25;1.98;;;1.80;;
27495;SDS011;14929;51.336;9.416;2023-06-14T07:07:54;2.60;;;2.28;;
27495;SDS011;14929;51.336;9.416;2023-06-14T07:10:22;1.92;;;1.83;;
27495;SDS011;14929;51.336;9.416;2023-06-14T07:12:50;2.33;;;2.13;;
27495;SDS011;14929;51.336;9.416;2023-06-14T07:15:17;2.13;;;1.92;;
27495;SDS011;14929;51.336;9.416;2023-06-14T07:17:45;3.58;;;2.20;;
27495;SDS011;14929;51.336;9.416;2023-06-14T07:20:12;2.67;;;2.47;;
27495;SDS011;14929;51.336;9.416;2023-06-14T07:22:41;3.67;;;2.60;;
27495;SDS011;14929;51.336;9.416;2023-06-14T07:25:11;2.50;;;2.30;;
27495;SDS011;14929;51.336;9.416;2023-06-14T07:27:39;3.10;;;2.80;;
27495;SDS011;14929;51.336;9.416;2023-06-14T07:30:07;4.63;;;2.10;;
27495;SDS011;14929;51.336;9.416;2023-06-14T07:32:36;2.65;;;2.45;;
27495;SDS011;14929;51.336;9.416;2023-06-14T07:35:04;2.60;;;2.38;;
27495;SDS011;14929;51.336;9.416;2023-06-14T07:37:32;2.90;;;2.70;;
27495;SDS011;14929;51.336;9.416;2023-06-14T07:40:00;2.25;;;2.05;;
27495;SDS011;14929;51.336;9.416;2023-06-14T07:42:33;2.47;;;2.28;;
27495;SDS011;14929;51.336;9.416;2023-06-14T07:45:01;2.97;;;2.58;;
27495;SDS011;14929;51.336;9.416;2023-06-14T07:47:29;3.08;;;2.47;;
27495;SDS011;14929;51.336;9.416;2023-06-14T07:49:57;2.30;;;2.10;;
27495;SDS011;14929;51.336;9.416;2023-06-14T07:52:24;2.65;;;2.45;;
27495;SDS011;14929;51.336;9.416;2023-06-14T07:54:52;2.03;;;1.92;;
27495;SDS011;14929;51.336;9.416;2023-06-14T07:57:19;2.88;;;2.67;;
27495;SDS011;14929;51.336;9.416;2023-06-14T07:59:48;2.55;;;2.08;;
27495;SDS011;14929;51.336;9.416;2023-06-14T08:02:16;2.47;;;2.28;;
27495;SDS011;14929;51.336;9.416;2023-06-14T08:04:43;4.00;;;2.28;;
27495;SDS011;14929;51.336;9.416;2023-06-14T08:07:11;2.45;;;2.15;;
27495;SDS011;14929;51.336;9.416;2023-06-14T08:09:39;10.50;;;3.85;;
27495;SDS011;14929;51.336;9.416;2023-06-14T08:12:07;2.42;;;2.22;;
27495;SDS011;14929;51.336;9.416;2023-06-14T08:14:35;2.63;;;2.42;;
27495;SDS011;14929;51.336;9.416;2023-06-14T08:17:04;2.85;;;2.42;;
27495;SDS011;14929;51.336;9.416;2023-06-14T08:19:32;2.47;;;2.28;;
27495;SDS011;14929;51.336;9.416;2023-06-14T08:48:21;1.75;;;1.65;;
27495;SDS011;14929;51.336;9.416;2023-06-14T08:50:50;3.60;;;2.63;;
27495;SDS011;14929;51.336;9.416;2023-06-14T08:53:18;2.65;;;2.45;;
27495;SDS011;14929;51.336;9.416;2023-06-14T08:59:27;2.13;;;1.95;;
27495;SDS011;14929;51.336;9.416;2023-06-14T09:01:56;2.80;;;2.10;;
27495;SDS011;14929;51.336;9.416;2023-06-14T09:04:26;2.58;;;2.38;;
27495;SDS011;14929;51.336;9.416;2023-06-14T09:06:54;2.63;;;2.42;;
27495;SDS011;14929;51.336;9.416;2023-06-14T09:09:23;2.30;;;2.10;;
27495;SDS011;14929;51.336;9.416;2023-06-14T09:23:02;2.78;;;1.80;;
27495;SDS011;14929;51.336;9.416;2023-06-14T09:25:30;2.33;;;2.13;;
27495;SDS011;14929;51.336;9.416;2023-06-14T09:27:58;1.73;;;1.63;;
27495;SDS011;14929;51.336;9.416;2023-06-14T09:30:25;2.53;;;1.70;;
27495;SDS011;14929;51.336;9.416;2023-06-14T09:32:52;2.13;;;1.95;;
27495;SDS011;14929;51.336;9.416;2023-06-14T09:35:20;2.35;;;2.15;;
27495;SDS011;14929;51.336;9.416;2023-06-14T09:37:47;2.15;;;1.95;;
27495;SDS011;14929;51.336;9.416;2023-06-14T09:40:18;2.00;;;1.90;;
27495;SDS011;14929;51.336;9.416;2023-06-14T09:42:47;1.92;;;1.83;;
27495;SDS011;14929;51.336;9.416;2023-06-14T09:45:15;2.88;;;2.22;;
27495;SDS011;14929;51.336;9.416;2023-06-14T09:47:46;2.60;;;2.40;;
27495;SDS011;14929;51.336;9.416;2023-06-14T09:50:16;2.47;;;1.90;;
27495;SDS011;14929;51.336;9.416;2023-06-14T09:52:43;2.30;;;2.20;;
27495;SDS011;14929;51.336;9.416;2023-06-14T09:55:12;2.70;;;2.30;;
27495;SDS011;14929;51.336;9.416;2023-06-14T09:57:42;2.20;;;2.00;;
27495;SDS011;14929;51.336;9.416;2023-06-14T10:00:11;2.40;;;2.10;;
27495;SDS011;14929;51.336;9.416;2023-06-14T10:02:40;2.22;;;2.03;;
27495;SDS011;14929;51.336;9.416;2023-06-14T10:05:12;2.10;;;2.00;;
27495;SDS011;14929;51.336;9.416;2023-06-14T10:07:44;2.17;;;2.08;;
27495;SDS011;14929;51.336;9.416;2023-06-14T10:10:18;2.40;;;2.20;;
27495;SDS011;14929;51.336;9.416;2023-06-14T10:12:48;2.10;;;2.00;;
27495;SDS011;14929;51.336;9.416;2023-06-14T10:15:17;2.90;;;2.50;;
27495;SDS011;14929;51.336;9.416;2023-06-14T10:17:50;2.85;;;2.25;;
27495;SDS011;14929;51.336;9.416;2023-06-14T10:49:45;2.47;;;2.28;;
27495;SDS011;14929;51.336;9.416;2023-06-14T10:52:19;2.00;;;1.83;;
27495;SDS011;14929;51.336;9.416;2023-06-14T10:54:59;3.47;;;3.28;;
27495;SDS011;14929;51.336;9.416;2023-06-14T10:57:31;7.15;;;3.17;;
27495;SDS011;14929;51.336;9.416;2023-06-14T11:00:01;3.20;;;2.40;;
27495;SDS011;14929;51.336;9.416;2023-06-14T11:06:06;2.50;;;2.30;;
27495;SDS011;14929;51.336;9.416;2023-06-14T11:09:05;4.70;;;3.22;;
27495;SDS011;14929;51.336;9.416;2023-06-14T11:12:03;2.35;;;2.15;;
27495;SDS011;14929;51.336;9.416;2023-06-14T11:14:31;2.08;;;1.98;;
27495;SDS011;14929;51.336;9.416;2023-06-14T11:17:00;2.38;;;2.20;;
27495;SDS011;14929;51.336;9.416;2023-06-14T11:19:28;2.38;;;2.20;;
27495;SDS011;14929;51.336;9.416;2023-06-14T11:21:56;3.95;;;1.77;;
27495;SDS011;14929;51.336;9.416;2023-06-14T11:24:25;2.10;;;1.95;;
27495;SDS011;14929;51.336;9.416;2023-06-14T11:26:52;1.92;;;1.83;;
27495;SDS011;14929;51.336;9.416;2023-06-14T11:29:21;1.70;;;1.60;;
27495;SDS011;14929;51.336;9.416;2023-06-14T11:31:49;2.10;;;2.00;;
27495;SDS011;14929;51.336;9.416;2023-06-14T11:34:18;2.50;;;2.30;;
27495;SDS011;14929;51.336;9.416;2023-06-14T11:36:46;2.85;;;1.92;;
27495;SDS011;14929;51.336;9.416;2023-06-14T11:39:14;4.15;;;2.20;;
27495;SDS011;14929;51.336;9.416;2023-06-14T11:41:42;2.30;;;2.10;;
27495;SDS011;14929;51.336;9.416;2023-06-14T11:44:11;2.83;;;2.33;;
27495;SDS011;14929;51.336;9.416;2023-06-14T11:46:39;2.20;;;2.00;;
27495;SDS011;14929;51.336;9.416;2023-06-14T11:49:07;2.05;;;1.95;;
27495;SDS011;14929;51.336;9.416;2023-06-14T11:51:36;2.85;;;1.90;;
27495;SDS011;14929;51.336;9.416;2023-06-14T11:54:04;1.90;;;1.80;;
27495;SDS011;14929;51.336;9.416;2023-06-14T11:56:34;1.45;;;1.35;;
27495;SDS011;14929;51.336;9.416;2023-06-14T11:59:02;1.80;;;1.70;;
27495;SDS011;14929;51.336;9.416;2023-06-14T12:01:30;2.13;;;2.00;;
27495;SDS011;14929;51.336;9.416;2023-06-14T12:04:02;1.88;;;1.70;;
27495;SDS011;14929;51.336;9.416;2023-06-14T12:06:30;2.15;;;2.05;;
27495;SDS011;14929;51.336;9.416;2023-06-14T12:09:04;1.90;;;1.80;;
27495;SDS011;14929;51.336;9.416;2023-06-14T12:11:37;2.60;;;2.35;;
27495;SDS011;14929;51.336;9.416;2023-06-14T12:14:05;2.03;;;1.92;;
27495;SDS011;14929;51.336;9.416;2023-06-14T12:16:34;2.67;;;2.10;;
27495;SDS011;14929;51.336;9.416;2023-06-14T12:19:11;3.15;;;1.63;;
27495;SDS011;14929;51.336;9.416;2023-06-14T12:21:41;2.58;;;2.38;;
27495;SDS011;14929;51.336;9.416;2023-06-14T12:24:11;2.05;;;1.83;;
27495;SDS011;14929;51.336;9.416;2023-06-14T12:26:39;2.13;;;1.90;;
27495;SDS011;14929;51.336;9.416;2023-06-14T12:29:07;2.33;;;2.13;;
27495;SDS011;14929;51.336;9.416;2023-06-14T12:31:35;2.08;;;1.90;;
27495;SDS011;14929;51.336;9.416;2023-06-14T12:34:02;1.92;;;1.83;;
27495;SDS011;14929;51.336;9.416;2023-06-14T12:36:30;3.22;;;1.85;;
27495;SDS011;14929;51.336;9.416;2023-06-14T12:38:57;2.08;;;1.98;;
27495;SDS011;14929;51.336;9.416;2023-06-14T12:41:26;1.63;;;1.52;;
27495;SDS011;14929;51.336;9.416;2023-06-14T12:43:54;1.80;;;1.70;;
27495;SDS011;14929;51.336;9.416;2023-06-14T12:46:23;1.58;;;1.48;;
27495;SDS011;14929;51.336;9.416;2023-06-14T12:48:50;2.33;;;2.13;;
27495;SDS011;14929;51.336;9.416;2023-06-14T12:51:18;1.80;;;1.70;;
27495;SDS011;14929;51.336;9.416;2023-06-14T12:53:45;2.10;;;2.00;;
27495;SDS011;14929;51.336;9.416;2023-06-14T12:56:13;2.60;;;2.40;;
27495;SDS011;14929;51.336;9.416;2023-06-14T12:58:43;2.20;;;2.10;;
27495;SDS011;14929;51.336;9.416;2023-06-14T13:01:10;2.20;;;1.90;;
27495;SDS011;14929;51.336;9.416;2023-06-14T13:03:38;1.80;;;1.70;;
27495;SDS011;14929;51.336;9.416;2023-06-14T13:06:05;1.67;;;1.58;;
27495;SDS011;14929;51.336;9.416;2023-06-14T13:08:33;2.60;;;1.75;;
27495;SDS011;14929;51.336;9.416;2023-06-14T13:11:00;1.77;;;1.67;;
27495;SDS011;14929;51.336;9.416;2023-06-14T13:13:28;1.77;;;1.67;;
27495;SDS011;14929;51.336;9.416;2023-06-14T13:15:57;2.67;;;1.92;;
27495;SDS011;14929;51.336;9.416;2023-06-14T13:18:25;1.52;;;1.42;;
27495;SDS011;14929;51.336;9.416;2023-06-14T13:20:53;1.70;;;1.50;;
27495;SDS011;14929;51.336;9.416;2023-06-14T13:23:20;1.63;;;1.50;;
27495;SDS011;14929;51.336;9.416;2023-06-14T13:25:47;1.80;;;1.70;;
27495;SDS011;14929;51.336;9.416;2023-06-14T13:28:16;1.50;;;1.33;;
27495;SDS011;14929;51.336;9.416;2023-06-14T13:30:43;1.52;;;1.42;;
27495;SDS011;14929;51.336;9.416;2023-06-14T13:33:12;1.63;;;1.40;;
27495;SDS011;14929;51.336;9.416;2023-06-14T13:35:40;1.30;;;1.30;;
27495;SDS011;14929;51.336;9.416;2023-06-14T13:38:08;2.72;;;2.38;;
27495;SDS011;14929;51.336;9.416;2023-06-14T13:40:36;1.45;;;1.35;;
27495;SDS011;14929;51.336;9.416;2023-06-14T13:43:04;1.95;;;1.75;;
27495;SDS011;14929;51.336;9.416;2023-06-14T13:45:31;1.73;;;1.63;;
27495;SDS011;14929;51.336;9.416;2023-06-14T13:47:58;1.95;;;1.85;;
27495;SDS011;14929;51.336;9.416;2023-06-14T13:50:27;1.45;;;1.40;;
27495;SDS011;14929;51.336;9.416;2023-06-14T13:52:55;1.90;;;1.80;;
27495;SDS011;14929;51.336;9.416;2023-06-14T13:55:22;1.80;;;1.70;;
27495;SDS011;14929;51.336;9.416;2023-06-14T13:57:50;1.27;;;1.20;;
27495;SDS011;14929;51.336;9.416;2023-06-14T14:00:18;1.42;;;1.30;;
27495;SDS011;14929;51.336;9.416;2023-06-14T14:02:46;1.52;;;1.20;;
27495;SDS011;14929;51.336;9.416;2023-06-14T14:05:15;1.67;;;1.58;;
27495;SDS011;14929;51.336;9.416;2023-06-14T14:07:44;1.50;;;1.40;;
27495;SDS011;14929;51.336;9.416;2023-06-14T14:10:12;1.77;;;1.52;;
27495;SDS011;14929;51.336;9.416;2023-06-14T14:12:40;1.65;;;1.55;;
27495;SDS011;14929;51.336;9.416;2023-06-14T14:15:07;1.60;;;1.50;;
27495;SDS011;14929;51.336;9.416;2023-06-14T14:17:37;1.70;;;1.60;;
27495;SDS011;14929;51.336;9.416;2023-06-14T14:20:05;1.98;;;1.88;;
27495;SDS011;14929;51.336;9.416;2023-06-14T14:22:34;1.75;;;1.65;;
27495;SDS011;14929;51.336;9.416;2023-06-14T14:25:03;2.00;;;1.60;;
27495;SDS011;14929;51.336;9.416;2023-06-14T14:27:31;1.73;;;1.60;;
27495;SDS011;14929;51.336;9.416;2023-06-14T14:29:58;1.67;;;1.58;;
27495;SDS011;14929;51.336;9.416;2023-06-14T14:32:26;2.25;;;1.40;;
27495;SDS011;14929;51.336;9.416;2023-06-14T14:34:53;1.63;;;1.50;;
27495;SDS011;14929;51.336;9.416;2023-06-14T14:37:21;1.10;;;1.10;;
27495;SDS011;14929;51.336;9.416;2023-06-14T14:39:48;1.85;;;1.75;;
27495;SDS011;14929;51.336;9.416;2023-06-14T14:42:17;1.80;;;1.70;;
27495;SDS011;14929;51.336;9.416;2023-06-14T14:44:45;1.63;;;1.52;;
27495;SDS011;14929;51.336;9.416;2023-06-14T14:47:12;1.92;;;1.60;;
27495;SDS011;14929;51.336;9.416;2023-06-14T14:49:40;1.83;;;1.40;;
27495;SDS011;14929;51.336;9.416;2023-06-14T14:52:07;1.55;;;1.45;;
27495;SDS011;14929;51.336;9.416;2023-06-14T14:54:35;1.70;;;1.60;;
27495;SDS011;14929;51.336;9.416;2023-06-14T14:57:02;1.70;;;1.60;;
27495;SDS011;14929;51.336;9.416;2023-06-14T14:59:33;1.70;;;1.60;;
27495;SDS011;14929;51.336;9.416;2023-06-14T15:02:00;2.20;;;2.10;;
27495;SDS011;14929;51.336;9.416;2023-06-14T15:04:28;1.70;;;1.60;;
27495;SDS011;14929;51.336;9.416;2023-06-14T15:06:56;1.65;;;1.55;;
27495;SDS011;14929;51.336;9.416;2023-06-14T15:09:24;1.65;;;1.55;;
27495;SDS011;14929;51.336;9.416;2023-06-14T15:11:51;1.25;;;1.25;;
27495;SDS011;14929;51.336;9.416;2023-06-14T15:14:19;1.92;;;1.83;;
27495;SDS011;14929;51.336;9.416;2023-06-14T15:16:47;1.40;;;1.30;;
27495;SDS011;14929;51.336;9.416;2023-06-14T15:19:17;2.28;;;1.75;;
27495;SDS011;14929;51.336;9.416;2023-06-14T15:21:45;1.00;;;1.00;;
27495;SDS011;14929;51.336;9.416;2023-06-14T15:24:12;1.48;;;1.38;;
27495;SDS011;14929;51.336;9.416;2023-06-14T15:26:39;1.30;;;1.30;;
27495;SDS011;14929;51.336;9.416;2023-06-14T15:29:07;1.45;;;1.35;;
27495;SDS011;14929;51.336;9.416;2023-06-14T15:31:34;1.58;;;1.48;;
27495;SDS011;14929;51.336;9.416;2023-06-14T15:34:05;1.50;;;1.40;;
27495;SDS011;14929;51.336;9.416;2023-06-14T15:36:33;1.42;;;1.33;;
27495;SDS011;14929;51.336;9.416;2023-06-14T15:39:00;1.77;;;1.63;;
27495;SDS011;14929;51.336;9.416;2023-06-14T15:41:28;1.60;;;1.48;;
27495;SDS011;14929;51.336;9.416;2023-06-14T15:43:56;1.25;;;1.23;;
27495;SDS011;14929;51.336;9.416;2023-06-14T15:46:23;1.70;;;1.60;;
27495;SDS011;14929;51.336;9.416;2023-06-14T15:48:51;1.50;;;1.40;;
27495;SDS011;14929;51.336;9.416;2023-06-14T15:51:19;1.60;;;1.50;;
27495;SDS011;14929;51.336;9.416;2023-06-14T15:53:47;1.00;;;1.00;;
27495;SDS011;14929;51.336;9.416;2023-06-14T15:56:14;0.93;;;0.93;;
27495;SDS011;14929;51.336;9.416;2023-06-14T15:58:42;1.77;;;1.67;;
27495;SDS011;14929;51.336;9.416;2023-06-14T16:01:09;1.42;;;1.33;;
27495;SDS011;14929;51.336;9.416;2023-06-14T16:03:37;1.65;;;1.55;;
27495;SDS011;14929;51.336;9.416;2023-06-14T16:06:04;0.95;;;0.95;;
27495;SDS011;14929;51.336;9.416;2023-06-14T16:08:33;1.50;;;1.40;;
27495;SDS011;14929;51.336;9.416;2023-06-14T16:11:00;1.20;;;1.20;;